Terminal Aerodrome Forecast
Issued by NWS Spokane, WA

Home | Current Version | Previous Version | Text Only | Print | Product List | Glossary On
Versions: 1 2 3 4 5 6 7 8 9 10 11 12 13 14 15 16 17 18 19 20 21 22 23 24 25 26 27 28 29 30 31 32 33 34 35 36 37 38
000
FTUS46 KOTX 252330
TAFEAT
TAF
KEAT 252330Z 2600/2624 VRB03KT 3SM -RA BR OVC005
      TEMPO 2600/2603 2SM -RA BR OVC002
     FM260600 31004KT 1SM BR OVC004
     FM261200 30002KT 3SM BR OVC001
     FM262000 28004KT P6SM OVC018=

USA.gov is the U.S. government's official web portal to all federal, state and local government web resources and services.